createdAt,value
2019-03-23T00:00:10.291Z,97222.37
2019-03-23T00:05:09.005Z,97225.42
2019-03-23T00:10:07.091Z,97221.80
2019-03-23T00:15:10.099Z,97221.13
2019-03-23T00:20:07.575Z,97218.55
2019-03-23T00:25:05.121Z,97212.25
2019-03-23T00:30:05.106Z,97220.77
2019-03-23T00:35:02.691Z,97213.63
2019-03-23T00:39:59.872Z,97199.50
2019-03-23T00:44:56.851Z,97197.39
2019-03-23T00:49:53.800Z,97196.13
2019-03-23T00:54:50.908Z,97190.52
2019-03-23T00:59:47.896Z,97189.48
2019-03-23T01:04:44.935Z,97190.66
2019-03-23T01:09:41.950Z,97191.10
2019-03-23T01:14:39.025Z,97175.95
2019-03-23T01:19:35.961Z,97171.76
2019-03-23T01:24:32.933Z,97179.16
2019-03-23T01:29:29.884Z,97182.06
2019-03-23T01:34:26.895Z,97175.11
2019-03-23T01:39:23.936Z,97179.91
2019-03-23T01:44:20.933Z,97175.93
2019-03-23T01:49:18.071Z,97186.58
2019-03-23T01:54:15.168Z,97188.85
2019-03-23T01:59:12.124Z,97183.01
2019-03-23T02:04:09.588Z,97187.58
2019-03-23T02:09:07.250Z,97181.30
2019-03-23T02:14:04.289Z,97180.22
2019-03-23T02:19:01.243Z,97188.70
2019-03-23T02:23:58.309Z,97187.64
2019-03-23T02:28:55.354Z,97185.67
2019-03-23T02:33:52.552Z,97172.55
2019-03-23T02:38:49.537Z,97168.56
2019-03-23T02:43:46.654Z,97161.08
2019-03-23T02:48:43.914Z,97151.83
2019-03-23T02:53:41.018Z,97155.36
2019-03-23T02:58:38.074Z,97148.81
2019-03-23T03:03:35.076Z,97142.44
2019-03-23T03:08:32.113Z,97145.73
2019-03-23T03:13:29.196Z,97146.57
2019-03-23T03:18:26.217Z,97136.53
2019-03-23T03:23:23.271Z,97144.23
2019-03-23T03:28:22.031Z,97143.72
2019-03-23T03:33:19.139Z,97147.84
2019-03-23T03:38:16.187Z,97137.08
2019-03-23T03:43:13.295Z,97137.45
2019-03-23T03:48:10.357Z,97144.59
2019-03-23T03:53:07.433Z,97142.66
2019-03-23T03:58:04.375Z,97142.89
2019-03-23T04:03:01.407Z,97146.16
2019-03-23T04:08:10.524Z,97139.37
2019-03-23T04:12:57.431Z,97143.26
2019-03-23T04:17:54.596Z,97140.97
2019-03-23T04:22:52.629Z,97142.56
2019-03-23T04:27:50.952Z,97150.77
2019-03-23T04:32:48.058Z,97150.14
2019-03-23T04:37:45.094Z,97148.19
2019-03-23T04:42:42.195Z,97143.70
2019-03-23T04:47:39.164Z,97152.17
2019-03-23T04:52:36.276Z,97149.45
2019-03-23T04:57:33.328Z,97153.84
2019-03-23T05:02:30.284Z,97163.80
2019-03-23T05:07:27.245Z,97157.22
2019-03-23T05:12:24.329Z,97156.42
2019-03-23T05:17:21.354Z,97156.09
2019-03-23T05:22:18.326Z,97149.42
2019-03-23T05:27:16.142Z,97147.33
2019-03-23T05:32:13.367Z,97142.75
2019-03-23T05:37:10.305Z,97151.58
2019-03-23T05:42:07.284Z,97145.45
2019-03-23T05:47:04.244Z,97141.66
2019-03-23T05:52:01.597Z,97139.37
2019-03-23T05:56:58.727Z,97142.16
2019-03-23T06:01:55.786Z,97134.87
2019-03-23T06:06:52.851Z,97136.01
2019-03-23T06:11:50.197Z,97131.25
2019-03-23T06:16:47.223Z,97132.37
2019-03-23T06:21:44.231Z,97134.63
2019-03-23T06:26:41.275Z,97137.27
2019-03-23T06:31:38.418Z,97147.36
2019-03-23T06:36:35.404Z,97144.09
2019-03-23T06:41:32.539Z,97148.08
2019-03-23T06:46:29.542Z,97142.90
2019-03-23T06:51:26.766Z,97147.72
2019-03-23T06:56:26.736Z,97154.45
2019-03-23T07:01:23.815Z,97147.77
2019-03-23T07:06:21.702Z,97140.67
2019-03-23T07:11:20.415Z,97135.30
2019-03-23T07:16:17.390Z,97138.61
2019-03-23T07:21:14.499Z,97128.92
2019-03-23T07:26:11.563Z,97127.32
2019-03-23T07:31:08.819Z,97123.81
2019-03-23T07:36:05.947Z,97126.80
2019-03-23T07:41:03.599Z,97136.99
2019-03-23T07:46:00.613Z,97123.80
2019-03-23T07:50:57.707Z,97120.02
2019-03-23T07:55:54.664Z,97121.13
2019-03-23T08:00:51.767Z,97127.61
2019-03-23T08:05:48.830Z,97135.02
2019-03-23T08:10:45.904Z,97125.08
2019-03-23T08:15:42.966Z,97119.22
2019-03-23T08:20:41.630Z,97115.34
2019-03-23T08:25:38.711Z,97101.70
2019-03-23T08:30:35.776Z,97095.22
2019-03-23T08:35:32.852Z,97089.41
2019-03-23T08:40:30.793Z,97082.44
2019-03-23T08:45:27.846Z,97083.88
2019-03-23T08:50:24.918Z,97074.03
2019-03-23T08:55:22.112Z,97076.59
2019-03-23T09:00:19.268Z,97075.17
2019-03-23T09:05:16.283Z,97071.77
2019-03-23T09:10:13.846Z,97065.98
2019-03-23T09:15:10.957Z,97071.91
2019-03-23T09:20:11.204Z,97071.63
2019-03-23T09:25:08.234Z,97063.11
2019-03-23T09:30:09.426Z,97051.59
2019-03-23T09:35:06.694Z,97046.64
2019-03-23T09:40:10.870Z,97038.20
2019-03-23T09:45:07.018Z,97035.31
2019-03-23T09:50:08.223Z,97042.73
2019-03-23T09:55:07.215Z,97034.55
2019-03-23T10:00:10.806Z,97033.23
2019-03-23T10:05:07.863Z,97034.03
2019-03-23T10:10:06.072Z,97028.97
2019-03-23T10:15:05.739Z,97009.30
2019-03-23T10:20:05.632Z,97005.47
2019-03-23T10:25:06.918Z,97011.33
2019-03-23T10:30:06.927Z,97006.46
2019-03-23T10:35:06.578Z,96987.94
2019-03-23T10:40:08.728Z,96991.18
2019-03-23T10:45:07.327Z,96982.05
2019-03-23T10:50:05.268Z,96985.95
2019-03-23T10:55:04.835Z,96992.16
2019-03-23T11:00:04.843Z,96984.51
2019-03-23T11:05:02.308Z,96982.63
2019-03-23T11:09:59.494Z,96984.14
2019-03-23T11:14:56.597Z,96985.50
2019-03-23T11:19:53.663Z,96981.59
2019-03-23T11:24:50.624Z,96980.00
2019-03-23T11:29:47.638Z,96968.13
2019-03-23T11:34:44.652Z,96970.64
2019-03-23T11:39:41.674Z,96968.70
2019-03-23T11:44:38.744Z,96952.59
2019-03-23T11:49:38.361Z,96950.05
2019-03-23T11:54:35.338Z,96938.48
2019-03-23T11:59:32.424Z,96930.89
2019-03-23T12:04:29.421Z,96931.54
2019-03-23T12:09:33.481Z,96931.58
2019-03-23T12:14:30.537Z,96930.30
2019-03-23T12:19:28.007Z,96926.73
2019-03-23T12:24:25.125Z,96926.03
2019-03-23T12:29:23.308Z,96916.72
2019-03-23T12:34:20.314Z,96909.86
2019-03-23T12:39:17.407Z,96911.60
2019-03-23T12:44:14.651Z,96896.63
2019-03-23T12:49:12.132Z,96882.09
2019-03-23T12:54:09.755Z,96881.08
2019-03-23T12:59:06.867Z,96877.70
2019-03-23T13:04:03.920Z,96873.16
2019-03-23T13:09:01.028Z,96871.57
2019-03-23T13:13:58.088Z,96862.73
2019-03-23T13:18:55.129Z,96867.04
2019-03-23T13:23:52.148Z,96860.47
2019-03-23T13:28:49.203Z,96848.95
2019-03-23T13:33:46.232Z,96852.57
2019-03-23T13:38:44.533Z,96837.67
2019-03-23T13:43:43.699Z,96839.27
2019-03-23T13:48:40.703Z,96838.21
2019-03-23T13:53:37.834Z,96834.29
2019-03-23T13:58:35.151Z,96827.64
2019-03-23T14:03:32.161Z,96824.77
2019-03-23T14:08:32.290Z,96817.69
2019-03-23T14:13:29.394Z,96818.34
2019-03-23T14:18:26.565Z,96809.88
2019-03-23T14:23:23.608Z,96808.70
2019-03-23T14:28:20.648Z,96807.15
2019-03-23T14:33:17.681Z,96800.64
2019-03-23T14:38:15.159Z,96792.25
2019-03-23T14:43:12.266Z,96785.56
2019-03-23T14:48:09.359Z,96776.22
2019-03-23T14:53:06.394Z,96767.41
2019-03-23T14:58:03.624Z,96771.50
2019-03-23T15:03:00.705Z,96766.71
2019-03-23T15:07:57.794Z,96761.75
2019-03-23T15:12:54.859Z,96750.23
2019-03-23T15:17:51.874Z,96751.77
2019-03-23T15:22:49.254Z,96750.00
2019-03-23T15:27:46.331Z,96748.24
2019-03-23T15:32:43.382Z,96745.04
2019-03-23T15:37:40.404Z,96740.05
2019-03-23T15:42:37.361Z,96737.34
2019-03-23T15:47:34.366Z,96738.73
2019-03-23T15:52:31.427Z,96732.52
2019-03-23T15:57:28.455Z,96728.04
2019-03-23T16:02:25.559Z,96724.53
2019-03-23T16:07:29.421Z,96728.26
2019-03-23T16:12:22.351Z,96723.90
2019-03-23T16:17:19.470Z,96723.00
2019-03-23T16:22:16.509Z,96726.23
2019-03-23T16:27:14.324Z,96726.14
2019-03-23T16:32:11.286Z,96727.64
2019-03-23T16:37:08.388Z,96724.08
2019-03-23T16:42:05.577Z,96722.27
2019-03-23T16:47:02.672Z,96719.78
2019-03-23T16:51:59.716Z,96719.62
2019-03-23T16:56:57.665Z,96711.88
2019-03-23T17:01:54.728Z,96710.91
2019-03-23T17:06:51.781Z,96712.47
2019-03-23T17:11:52.793Z,96717.89
2019-03-23T17:16:50.004Z,96713.80
2019-03-23T17:21:47.056Z,96709.58
2019-03-23T17:26:44.023Z,96710.71
2019-03-23T17:31:41.075Z,96706.05
2019-03-23T17:36:39.690Z,96707.91
2019-03-23T17:41:36.647Z,96709.61
2019-03-23T17:46:33.747Z,96706.07
2019-03-23T17:51:30.824Z,96705.22
2019-03-23T17:56:27.876Z,96708.02
2019-03-23T18:01:24.831Z,96716.28
2019-03-23T18:06:21.807Z,96716.27
2019-03-23T18:11:18.809Z,96715.39
2019-03-23T18:16:16.236Z,96716.23
2019-03-23T18:21:13.265Z,96717.66
2019-03-23T18:26:10.900Z,96715.08
2019-03-23T18:31:07.873Z,96708.39
2019-03-23T18:36:04.953Z,96717.30
2019-03-23T18:41:01.993Z,96719.97
2019-03-23T18:45:58.995Z,96718.12
2019-03-23T18:50:56.225Z,96716.69
2019-03-23T18:55:53.387Z,96717.07
2019-03-23T19:00:50.396Z,96708.60
2019-03-23T19:05:47.401Z,96711.74
2019-03-23T19:10:45.352Z,96718.41
2019-03-23T19:15:42.382Z,96712.02
2019-03-23T19:20:39.423Z,96715.37
2019-03-23T19:25:36.804Z,96725.59
2019-03-23T19:30:33.889Z,96730.16
2019-03-23T19:35:31.073Z,96728.84
2019-03-23T19:40:28.101Z,96719.05
2019-03-23T19:45:25.148Z,96720.70
2019-03-23T19:50:22.091Z,96725.93
2019-03-23T19:55:19.213Z,96720.35
2019-03-23T20:00:19.539Z,96716.66
2019-03-23T20:05:16.621Z,96717.78
2019-03-23T20:10:14.380Z,96715.58
2019-03-23T20:15:11.644Z,96709.94
2019-03-23T20:20:09.608Z,96705.54
2019-03-23T20:25:07.257Z,96702.94
2019-03-23T20:30:10.165Z,96702.41
2019-03-23T20:35:08.081Z,96710.88
2019-03-23T20:40:06.077Z,96708.30
2019-03-23T20:45:06.673Z,96707.59
2019-03-23T20:50:06.515Z,96714.27
2019-03-23T20:55:08.081Z,96699.27
2019-03-23T21:00:06.619Z,96701.54
2019-03-23T21:05:04.924Z,96695.25
2019-03-23T21:10:01.877Z,96697.20
2019-03-23T21:14:59.107Z,96691.41
2019-03-23T21:19:56.089Z,96691.55
2019-03-23T21:24:53.158Z,96683.38
2019-03-23T21:29:50.192Z,96677.20
2019-03-23T21:34:48.661Z,96666.72
2019-03-23T21:39:45.666Z,96670.77
2019-03-23T21:44:44.782Z,96665.16
2019-03-23T21:49:41.822Z,96668.73
2019-03-23T21:54:39.261Z,96664.59
2019-03-23T21:59:36.227Z,96664.45
2019-03-23T22:04:33.254Z,96652.50
2019-03-23T22:09:30.248Z,96645.12
2019-03-23T22:14:27.738Z,96646.09
2019-03-23T22:19:24.782Z,96637.09
2019-03-23T22:24:21.781Z,96642.47
2019-03-23T22:29:18.712Z,96642.17
2019-03-23T22:34:16.595Z,96640.27
2019-03-23T22:39:13.739Z,96652.12
2019-03-23T22:44:10.710Z,96637.59
2019-03-23T22:49:07.682Z,96639.76
2019-03-23T22:54:05.152Z,96638.52
2019-03-23T22:59:02.120Z,96636.91
2019-03-23T23:03:59.202Z,96625.80
2019-03-23T23:08:56.242Z,96621.23
2019-03-23T23:13:53.272Z,96629.58
2019-03-23T23:18:50.199Z,96636.85
2019-03-23T23:23:47.183Z,96618.97
2019-03-23T23:28:44.661Z,96613.21
2019-03-23T23:33:41.639Z,96614.82
2019-03-23T23:38:38.642Z,96620.00
2019-03-23T23:43:35.637Z,96610.72
2019-03-23T23:48:32.689Z,96603.38
2019-03-23T23:53:29.754Z,96603.55
2019-03-23T23:58:26.808Z,96602.22
